Time;durP1;ratioP1;P1;durP2;ratioP2;P2;SDS_P1;SDS_P2;PMS_P1;PMS_P2;Temp;Humidity;BMP_temperature;BMP_pressure;BME280_temperature;BME280_humidity;BME280_pressure;Samples;Min_cycle;Max_cycle;Signal;HPM_P1;HPM_P2
2022/09/24 00:02:50;;;;;;;0.00;0.00;;;;;;;14.63;56.29;97713.97;8383922;28;20231;-72
2022/09/24 00:06:53;;;;;;;0.10;0.10;;;;;;;14.69;56.31;97707.53;8384098;28;20246;-73
2022/09/24 00:10:56;;;;;;;0.00;0.00;;;;;;;14.70;56.43;97704.00;8383979;28;20219;-73
2022/09/24 00:14:58;;;;;;;0.00;0.00;;;;;;;14.61;56.42;97694.19;8383907;28;20239;-73
2022/09/24 00:19:04;;;;;;;0.00;0.00;;;;;;;14.26;58.08;97702.47;8383691;28;20510;-72
2022/09/24 00:23:07;;;;;;;0.00;0.00;;;;;;;14.38;57.56;97703.44;8383207;28;20228;-72
2022/09/24 00:27:10;;;;;;;0.00;0.00;;;;;;;13.97;59.24;97702.50;8382981;28;20227;-72
2022/09/24 00:31:13;;;;;;;0.00;0.00;;;;;;;14.23;58.20;97697.44;8383027;28;20227;-72
2022/09/24 00:35:17;;;;;;;0.00;0.00;;;;;;;14.52;57.24;97690.34;8382624;28;20228;-73
2022/09/24 00:39:20;;;;;;;0.00;0.00;;;;;;;14.59;57.21;97690.84;8383004;28;20298;-74
2022/09/24 00:43:27;;;;;;;0.00;0.00;;;;;;;14.54;57.04;97687.66;8382397;28;20464;-74
2022/09/24 00:47:35;;;;;;;0.00;0.00;;;;;;;14.54;57.59;97687.66;8382155;28;20277;-74
2022/09/24 00:51:40;;;;;;;0.00;0.00;;;;;;;14.56;57.34;97681.41;8382335;28;20522;-74
2022/09/24 00:55:44;;;;;;;0.00;0.00;;;;;;;14.60;57.53;97682.06;8382112;28;20281;-74
2022/09/24 00:59:47;;;;;;;0.00;0.00;;;;;;;14.64;57.10;97683.53;8382311;28;20530;-74
2022/09/24 01:03:51;;;;;;;0.00;0.00;;;;;;;14.60;57.31;97685.53;8382031;28;20379;-74
2022/09/24 01:08:00;;;;;;;0.07;0.07;;;;;;;14.24;57.97;97678.25;8382138;28;20229;-74
2022/09/24 01:12:08;;;;;;;0.00;0.00;;;;;;;14.50;57.37;97674.00;8381940;28;20304;-74
2022/09/24 01:16:15;;;;;;;0.00;0.00;;;;;;;14.47;57.58;97674.22;8381694;28;20238;-74
2022/09/24 01:20:46;;;;;;;0.00;0.00;;;;;;;14.56;57.33;97667.53;8381604;28;20231;-74
2022/09/24 01:24:59;;;;;;;0.00;0.00;;;;;;;14.59;57.04;97667.38;8381185;28;20312;-74
2022/09/24 01:29:20;;;;;;;0.10;0.10;;;;;;;14.55;57.49;97652.88;8380973;28;20397;-74
2022/09/24 01:33:24;;;;;;;0.00;0.00;;;;;;;14.51;57.62;97654.81;8381240;28;20498;-74
2022/09/24 01:37:29;;;;;;;0.00;0.00;;;;;;;14.39;58.03;97645.19;8380731;28;20235;-73
2022/09/24 01:41:33;;;;;;;0.10;0.10;;;;;;;14.41;57.79;97633.75;8381002;28;20243;-74
2022/09/24 01:45:38;;;;;;;0.00;0.00;;;;;;;14.51;57.45;97625.31;8380912;28;20239;-74
2022/09/24 01:49:41;;;;;;;0.00;0.00;;;;;;;14.50;57.43;97616.66;8380734;28;20235;-74
2022/09/24 01:53:47;;;;;;;0.00;0.00;;;;;;;14.32;57.86;97608.31;8380541;28;20239;-74
2022/09/24 01:57:52;;;;;;;0.10;0.10;;;;;;;14.41;57.51;97599.03;8380570;28;20279;-74
2022/09/24 02:02:01;;;;;;;0.03;0.03;;;;;;;14.28;57.79;97599.84;8379843;28;20227;-74
2022/09/24 02:06:07;;;;;;;0.00;0.00;;;;;;;14.34;57.62;97598.63;8380632;28;20239;-74
2022/09/24 02:10:15;;;;;;;0.00;0.00;;;;;;;14.20;57.89;97596.91;8380550;28;20227;-74
2022/09/24 02:14:18;;;;;;;0.00;0.00;;;;;;;14.36;57.43;97590.69;8380222;28;20239;-75
2022/09/24 02:18:25;;;;;;;0.00;0.00;;;;;;;14.27;57.10;97584.31;8380383;28;20239;-74
2022/09/24 02:22:29;;;;;;;0.00;0.00;;;;;;;14.24;57.40;97580.16;8379749;28;20240;-74
2022/09/24 02:26:32;;;;;;;0.10;0.10;;;;;;;14.17;57.58;97581.47;8380076;28;20231;-74
2022/09/24 02:30:39;;;;;;;0.00;0.00;;;;;;;14.33;57.59;97581.31;8379548;28;20235;-74
2022/09/24 02:34:46;;;;;;;0.10;0.10;;;;;;;14.24;57.70;97590.56;8379445;28;20242;-74
2022/09/24 02:38:48;;;;;;;0.00;0.00;;;;;;;14.29;56.90;97585.03;8379580;28;20231;-74
2022/09/24 02:42:51;;;;;;;0.00;0.00;;;;;;;14.26;57.53;97582.66;8379604;28;20247;-74
2022/09/24 02:46:54;;;;;;;0.00;0.00;;;;;;;14.26;57.26;97582.66;8379382;28;20232;-74
2022/09/24 02:50:59;;;;;;;0.00;0.00;;;;;;;14.16;57.23;97571.97;8379469;28;20421;-74
2022/09/24 02:55:02;;;;;;;0.10;0.10;;;;;;;14.23;57.24;97568.06;8379380;28;20235;-74
2022/09/24 02:59:05;;;;;;;0.10;0.10;;;;;;;14.27;57.32;97576.50;8379315;28;20227;-74
2022/09/24 03:03:07;;;;;;;0.07;0.07;;;;;;;14.17;57.12;97581.47;8379199;28;20235;-74
2022/09/24 03:07:13;;;;;;;0.10;0.10;;;;;;;14.19;57.10;97576.19;8379100;28;20231;-74
2022/09/24 03:11:16;;;;;;;0.00;0.00;;;;;;;14.19;57.57;97573.56;8379147;28;20648;-74
2022/09/24 03:15:20;;;;;;;0.00;0.00;;;;;;;14.18;57.28;97561.47;8384109;28;20295;-74
2022/09/24 03:19:23;;;;;;;0.00;0.00;;;;;;;14.16;57.34;97561.56;8385040;28;20242;-74
2022/09/24 03:23:27;;;;;;;0.00;0.00;;;;;;;14.17;57.20;97552.84;8384668;28;20235;-73
2022/09/24 03:27:30;;;;;;;0.00;0.00;;;;;;;14.17;57.69;97554.63;8384594;28;20235;-74
2022/09/24 03:31:33;;;;;;;0.00;0.00;;;;;;;14.21;57.20;97556.91;8384818;28;20560;-74
2022/09/24 03:35:36;;;;;;;0.00;0.00;;;;;;;14.14;57.45;97552.19;8384407;28;20301;-74
2022/09/24 03:39:40;;;;;;;0.00;0.00;;;;;;;14.06;57.62;97557.91;8384328;28;20426;-74
2022/09/24 03:43:43;;;;;;;0.00;0.00;;;;;;;14.18;57.33;97562.31;8384289;28;20232;-74
2022/09/24 03:47:46;;;;;;;0.03;0.03;;;;;;;14.18;57.40;97572.72;8384299;28;20458;-74
2022/09/24 03:51:49;;;;;;;0.00;0.00;;;;;;;14.11;57.90;97565.41;8383942;28;20234;-74
2022/09/24 03:55:55;;;;;;;0.00;0.00;;;;;;;14.08;57.84;97558.63;8383856;28;20277;-74
2022/09/24 04:00:01;;;;;;;0.00;0.00;;;;;;;14.11;57.95;97561.06;8383798;28;20231;-74
2022/09/24 04:04:05;;;;;;;0.00;0.00;;;;;;;14.15;57.99;97553.88;8383626;28;20223;-74
2022/09/24 04:08:07;;;;;;;0.00;0.00;;;;;;;14.12;58.31;97562.72;8383712;28;20228;-74
2022/09/24 04:12:12;;;;;;;0.00;0.00;;;;;;;14.17;58.36;97559.81;8383575;28;20230;-74
2022/09/24 04:16:14;;;;;;;0.00;0.00;;;;;;;14.16;58.20;97552.94;8383351;28;20223;-75
2022/09/24 04:20:20;;;;;;;0.00;0.00;;;;;;;14.13;58.10;97571.38;8383507;28;20231;-75
2022/09/24 04:24:23;;;;;;;0.07;0.07;;;;;;;14.19;57.82;97561.38;8382641;28;20238;-75
2022/09/24 04:28:27;;;;;;;0.10;0.10;;;;;;;14.15;58.00;97548.69;8382486;28;20322;-75
2022/09/24 04:32:30;;;;;;;0.00;0.00;;;;;;;14.12;58.27;97547.09;8382760;28;20269;-75
2022/09/24 04:36:33;;;;;;;0.00;0.00;;;;;;;14.15;58.41;97540.84;8382787;28;20239;-75
2022/09/24 04:40:35;;;;;;;0.00;0.00;;;;;;;14.10;58.32;97537.72;8382743;28;20409;-74
2022/09/24 04:44:40;;;;;;;0.10;0.10;;;;;;;14.04;58.10;97536.34;8382528;28;20235;-75
2022/09/24 04:48:43;;;;;;;0.00;0.00;;;;;;;13.98;58.23;97528.94;8382500;28;20231;-76
2022/09/24 04:52:46;;;;;;;0.00;0.00;;;;;;;14.03;58.00;97537.25;8382275;28;20231;-75
2022/09/24 04:56:49;;;;;;;0.00;0.00;;;;;;;13.96;57.80;97531.63;8381989;28;20228;-75
2022/09/24 05:00:53;;;;;;;0.00;0.00;;;;;;;13.98;58.19;97531.53;8382009;28;20223;-75
2022/09/24 05:04:56;;;;;;;0.03;0.03;;;;;;;13.86;58.27;97539.22;8381930;28;20239;-75
2022/09/24 05:08:58;;;;;;;0.10;0.10;;;;;;;13.83;58.64;97541.19;8381632;28;20227;-75
2022/09/24 05:13:01;;;;;;;0.00;0.00;;;;;;;13.88;58.64;97542.56;8381495;28;20223;-76
2022/09/24 05:17:05;;;;;;;0.00;0.00;;;;;;;13.87;58.49;97534.84;8381209;28;20227;-74
2022/09/24 05:21:08;;;;;;;0.00;0.00;;;;;;;13.89;58.19;97541.59;8381470;28;20258;-74
2022/09/24 05:25:12;;;;;;;0.00;0.00;;;;;;;13.87;58.67;97540.88;8381194;28;20235;-74
2022/09/24 05:29:15;;;;;;;0.00;0.00;;;;;;;13.91;57.93;97544.09;8380936;28;20469;-75
2022/09/24 05:33:19;;;;;;;0.00;0.00;;;;;;;13.95;58.04;97545.56;8380773;28;20228;-76
2022/09/24 05:37:21;;;;;;;0.07;0.07;;;;;;;13.96;58.25;97544.66;8380181;28;20235;-75
2022/09/24 05:41:24;;;;;;;0.00;0.00;;;;;;;14.03;57.86;97550.28;8380827;28;20235;-74
2022/09/24 05:45:27;;;;;;;0.00;0.00;;;;;;;14.01;58.22;97547.81;8380031;28;20228;-73
2022/09/24 05:49:31;;;;;;;0.00;0.00;;;;;;;14.12;57.56;97541.88;8380429;28;20242;-74
2022/09/24 05:53:34;;;;;;;0.00;0.00;;;;;;;14.39;56.53;97541.84;8380347;28;20254;-74
2022/09/24 05:57:37;;;;;;;0.10;0.10;;;;;;;14.66;56.32;97547.00;8380380;28;20255;-74
2022/09/24 06:01:40;;;;;;;0.00;0.00;;;;;;;14.58;55.92;97548.44;8379851;28;20269;-75
2022/09/24 06:05:48;;;;;;;0.10;0.10;;;;;;;14.53;56.47;97551.34;8380376;28;20231;-75
2022/09/24 06:09:51;;;;;;;0.00;0.00;;;;;;;14.38;56.11;97542.78;8380097;28;20393;-75
2022/09/24 06:13:53;;;;;;;0.10;0.10;;;;;;;14.29;56.69;97543.38;8379968;28;20277;-75
2022/09/24 06:17:58;;;;;;;0.00;0.00;;;;;;;14.30;56.49;97539.84;8379991;28;20417;-76
2022/09/24 06:22:02;;;;;;;0.00;0.00;;;;;;;14.29;56.87;97538.16;8379846;28;20234;-74
2022/09/24 06:26:07;;;;;;;0.10;0.10;;;;;;;14.23;56.84;97547.22;8379572;28;20227;-74
2022/09/24 06:30:10;;;;;;;0.00;0.00;;;;;;;14.31;56.75;97551.91;8379220;28;20235;-74
2022/09/24 06:34:14;;;;;;;0.10;0.10;;;;;;;14.39;56.54;97548.81;8379615;28;20235;-74
2022/09/24 06:38:18;;;;;;;0.00;0.00;;;;;;;14.33;56.44;97552.66;8379726;28;20277;-74
2022/09/24 06:42:21;;;;;;;0.10;0.10;;;;;;;14.38;56.55;97555.78;8379568;28;20538;-75
2022/09/24 06:46:24;;;;;;;0.00;0.00;;;;;;;14.64;55.76;97564.50;8379597;28;20240;-75
2022/09/24 06:50:29;;;;;;;0.00;0.00;;;;;;;14.85;55.06;97577.03;8384913;28;20521;-75
2022/09/24 06:54:33;;;;;;;0.10;0.10;;;;;;;14.83;55.36;97574.53;8385690;28;20235;-75
2022/09/24 06:58:36;;;;;;;0.00;0.00;;;;;;;15.37;54.67;97565.59;8385913;28;20235;-76
2022/09/24 07:02:39;;;;;;;0.00;0.00;;;;;;;15.53;53.99;97573.19;8385747;28;20231;-74
2022/09/24 07:11:03;;;;;;;0.00;0.00;;;;;;;15.53;53.25;97564.53;8385584;28;20224;-75
2022/09/24 07:15:07;;;;;;;0.10;0.10;;;;;;;15.89;53.01;97568.09;8385358;28;20459;-75
2022/09/24 07:19:09;;;;;;;0.00;0.00;;;;;;;15.91;52.83;97569.63;8385396;28;20289;-75
2022/09/24 07:23:12;;;;;;;0.00;0.00;;;;;;;15.99;52.23;97567.31;8385409;28;20249;-75
2022/09/24 07:27:18;;;;;;;0.00;0.00;;;;;;;16.02;51.83;97576.69;8384766;28;20232;-74
2022/09/24 07:31:21;;;;;;;0.00;0.00;;;;;;;15.95;52.38;97583.31;8384884;28;20262;-76
2022/09/24 07:35:24;;;;;;;0.00;0.00;;;;;;;15.86;52.85;97571.75;8384664;28;20235;-75
2022/09/24 07:39:27;;;;;;;0.00;0.00;;;;;;;15.94;52.54;97579.03;8384212;28;20242;-74
2022/09/24 07:43:32;;;;;;;0.00;0.00;;;;;;;16.02;52.50;97577.53;8384441;28;20227;-74
2022/09/24 07:47:35;;;;;;;0.00;0.00;;;;;;;16.30;52.20;97572.91;8384573;28;20250;-75
2022/09/24 07:51:38;;;;;;;0.00;0.00;;;;;;;16.84;50.98;97568.91;8384291;28;20235;-74
2022/09/24 07:55:40;;;;;;;0.00;0.00;;;;;;;16.96;50.14;97577.59;8384048;28;20235;-75
2022/09/24 07:59:45;;;;;;;0.00;0.00;;;;;;;17.31;49.56;97579.28;8383257;28;20235;-74
2022/09/24 08:03:47;;;;;;;0.00;0.00;;;;;;;17.56;49.55;97593.88;8384024;28;20250;-75
2022/09/24 08:07:54;;;;;;;0.00;0.00;;;;;;;17.00;50.45;97586.84;8383789;28;20227;-75
2022/09/24 08:11:57;;;;;;;0.00;0.00;;;;;;;17.24;50.47;97571.06;8383813;28;20234;-75
2022/09/24 08:16:02;;;;;;;0.00;0.00;;;;;;;17.80;49.42;97570.16;8383562;28;20238;-75
2022/09/24 08:20:05;;;;;;;0.00;0.00;;;;;;;18.10;48.15;97582.59;8383334;28;20234;-75
2022/09/24 08:24:08;;;;;;;0.00;0.00;;;;;;;18.31;47.85;97587.88;8383284;28;20249;-75
2022/09/24 08:28:11;;;;;;;0.00;0.00;;;;;;;18.58;47.22;97580.47;8383023;28;20239;-75
2022/09/24 08:32:15;;;;;;;0.00;0.00;;;;;;;18.89;46.29;97586.66;8383034;28;20258;-77
2022/09/24 08:36:18;;;;;;;0.00;0.00;;;;;;;19.36;46.40;97599.31;8383165;28;20243;-76
2022/09/24 08:40:23;;;;;;;0.00;0.00;;;;;;;19.28;45.42;97586.84;8383232;28;20258;-77
2022/09/24 08:48:53;;;;;;;0.00;0.00;;;;;;;20.21;44.47;97582.25;8382493;28;20229;-76
2022/09/24 08:53:03;;;;;;;0.00;0.00;;;;;;;19.69;45.28;97575.38;8382493;28;20243;-77
2022/09/24 08:57:11;;;;;;;0.00;0.00;;;;;;;19.50;45.21;97580.56;8382514;28;20232;-76
2022/09/24 09:01:21;;;;;;;0.00;0.00;;;;;;;19.43;46.09;97584.69;8382122;28;20235;-76
2022/09/24 09:05:39;;;;;;;0.00;0.00;;;;;;;19.36;46.28;97587.00;8381647;28;20248;-76
2022/09/24 09:09:52;;;;;;;0.00;0.00;;;;;;;19.50;46.41;97596.31;8381543;28;20228;-76
2022/09/24 09:13:59;;;;;;;0.00;0.00;;;;;;;20.03;45.85;97603.09;8381715;28;20231;-76
2022/09/24 09:18:06;;;;;;;0.00;0.00;;;;;;;19.89;44.42;97599.91;8381483;28;20235;-76
2022/09/24 09:22:14;;;;;;;0.00;0.00;;;;;;;18.52;46.85;97605.41;8381187;28;20337;-77
2022/09/24 09:26:19;;;;;;;0.00;0.00;;;;;;;19.34;46.41;97600.28;8381416;28;20236;-77
2022/09/24 09:30:22;;;;;;;0.00;0.00;;;;;;;19.54;46.39;97595.09;8381126;28;20242;-77
2022/09/24 09:34:49;;;;;;;0.00;0.00;;;;;;;19.64;46.86;97606.44;8381084;28;20235;-76
2022/09/24 09:38:59;;;;;;;0.00;0.00;;;;;;;19.50;46.23;97597.16;8380808;28;20239;-76
2022/09/24 09:43:04;;;;;;;0.00;0.00;;;;;;;19.52;46.06;97603.09;8380883;28;20292;-76
2022/09/24 09:47:16;;;;;;;0.00;0.00;;;;;;;19.83;45.83;97610.94;8380712;28;20291;-76
2022/09/24 09:51:21;;;;;;;0.00;0.00;;;;;;;20.06;45.32;97602.84;8380888;28;20238;-77
2022/09/24 09:55:28;;;;;;;0.00;0.00;;;;;;;19.86;45.94;97604.63;8380514;28;20235;-77
2022/09/24 09:59:33;;;;;;;0.00;0.00;;;;;;;19.67;46.39;97608.00;8379937;28;20240;-76
2022/09/24 10:03:48;;;;;;;0.00;0.00;;;;;;;19.58;47.56;97604.34;8380294;28;20235;-76
2022/09/24 10:07:52;;;;;;;0.00;0.00;;;;;;;19.57;48.20;97602.69;8380172;28;20416;-77
2022/09/24 10:12:06;;;;;;;0.00;0.00;;;;;;;19.67;47.88;97597.50;8380032;28;20235;-76
2022/09/24 10:16:10;;;;;;;0.00;0.00;;;;;;;19.69;47.50;97591.13;8380031;28;20228;-77
2022/09/24 10:20:19;;;;;;;0.00;0.00;;;;;;;19.69;48.11;97585.03;8380075;28;20228;-77
2022/09/24 10:24:24;;;;;;;0.00;0.00;;;;;;;19.60;47.82;97591.91;8385572;28;20302;-76
2022/09/24 10:32:57;;;;;;;0.00;0.00;;;;;;;19.60;48.51;97580.59;8330415;28;20241;-76
2022/09/24 10:37:01;;;;;;;0.00;0.00;;;;;;;19.53;48.45;97588.16;8386660;28;20538;-75
2022/09/24 10:41:16;;;;;;;0.00;0.00;;;;;;;19.60;47.77;97584.03;8386630;28;20560;-77
2022/09/24 10:45:20;;;;;;;0.00;0.00;;;;;;;19.64;47.33;97585.44;8386451;28;20223;-75
2022/09/24 10:49:33;;;;;;;0.00;0.00;;;;;;;19.57;49.73;97588.72;8386225;28;20422;-74
2022/09/24 10:53:44;;;;;;;0.00;0.00;;;;;;;19.56;48.81;97594.97;8385722;28;20235;-75
2022/09/24 10:57:55;;;;;;;0.00;0.00;;;;;;;19.56;47.86;97587.91;8382154;28;20232;-75
2022/09/24 11:02:15;;;;;;;0.00;0.00;;;;;;;19.65;47.43;97587.09;8385682;28;20228;-76
2022/09/24 11:06:28;;;;;;;0.00;0.00;;;;;;;19.67;46.97;97574.66;8385859;28;20428;-77
2022/09/24 11:10:50;;;;;;;0.00;0.00;;;;;;;19.63;46.82;97586.41;8385380;28;20528;-76
2022/09/24 11:15:07;;;;;;;0.00;0.00;;;;;;;19.60;47.00;97583.22;8385606;28;20423;-76
2022/09/24 11:19:20;;;;;;;0.00;0.00;;;;;;;19.51;48.59;97579.59;8385174;28;20240;-76
2022/09/24 11:23:40;;;;;;;0.00;0.00;;;;;;;19.51;47.50;97575.19;8385121;28;20229;-77
2022/09/24 11:27:51;;;;;;;0.00;0.00;;;;;;;19.37;47.24;97572.09;8384818;28;20247;-76
2022/09/24 11:32:03;;;;;;;0.00;0.00;;;;;;;19.11;47.75;97580.41;8384676;28;20236;-77
2022/09/24 11:36:24;;;;;;;0.00;0.00;;;;;;;19.25;49.24;97571.38;8383034;28;20232;-76
2022/09/24 11:40:44;;;;;;;0.00;0.00;;;;;;;19.01;48.70;97571.66;8384313;28;20433;-76
2022/09/24 11:44:59;;;;;;;0.00;0.00;;;;;;;19.18;48.09;97578.09;8384297;28;20235;-77
2022/09/24 11:49:19;;;;;;;0.00;0.00;;;;;;;19.36;48.12;97578.28;8384306;28;20306;-77
2022/09/24 11:53:34;;;;;;;0.00;0.00;;;;;;;19.53;47.42;97577.66;8384173;28;20242;-76
2022/09/24 11:57:39;;;;;;;0.00;0.00;;;;;;;19.78;46.56;97565.88;8383855;28;20239;-77
2022/09/24 12:01:47;;;;;;;0.00;0.00;;;;;;;19.89;46.07;97575.44;8384130;28;20523;-76
2022/09/24 12:05:55;;;;;;;0.00;0.00;;;;;;;19.99;45.49;97563.16;8383923;28;20231;-77
2022/09/24 12:10:03;;;;;;;0.00;0.00;;;;;;;20.76;44.35;97569.34;8383726;28;20561;-76
2022/09/24 12:14:12;;;;;;;0.00;0.00;;;;;;;20.65;44.72;97556.34;8383697;28;20245;-77
2022/09/24 12:18:19;;;;;;;0.00;0.00;;;;;;;20.22;45.26;97557.59;8383442;28;20320;-76
2022/09/24 12:22:23;;;;;;;0.00;0.00;;;;;;;20.58;50.81;97557.84;8383572;28;20541;-77
2022/09/24 12:26:30;;;;;;;0.00;0.00;;;;;;;20.30;46.35;97557.75;8382547;28;20233;-74
2022/09/24 12:35:02;;;;;;;0.00;0.00;;;;;;;20.39;46.53;97548.19;8383043;28;20556;-78
2022/09/24 12:39:07;;;;;;;0.00;0.00;;;;;;;20.11;45.87;97559.41;8382978;28;20236;-77
2022/09/24 12:43:19;;;;;;;0.00;0.00;;;;;;;20.33;45.61;97564.53;8382673;28;20238;-76
2022/09/24 12:47:23;;;;;;;0.00;0.00;;;;;;;20.35;45.64;97554.69;8382082;28;20263;-78
2022/09/24 12:51:34;;;;;;;0.00;0.00;;;;;;;20.46;45.99;97557.19;8381944;28;20235;-76
2022/09/24 12:55:37;;;;;;;0.00;0.00;;;;;;;20.28;44.18;97554.44;8382119;28;20477;-76
2022/09/24 12:59:50;;;;;;;0.00;0.00;;;;;;;20.29;44.26;97553.44;8382270;28;20235;-77
2022/09/24 13:04:02;;;;;;;0.00;0.00;;;;;;;20.49;44.04;97546.38;8382120;28;20256;-77
2022/09/24 13:08:25;;;;;;;0.00;0.00;;;;;;;20.92;43.66;97544.22;8381834;28;20529;-78
2022/09/24 13:12:31;;;;;;;0.00;0.00;;;;;;;21.35;42.85;97532.28;8381472;28;20252;-76
2022/09/24 13:16:39;;;;;;;0.00;0.00;;;;;;;21.04;41.49;97543.91;8381439;28;20554;-78
2022/09/24 13:20:43;;;;;;;0.00;0.00;;;;;;;20.89;42.68;97538.28;8381493;28;20283;-76
2022/09/24 13:24:53;;;;;;;0.00;0.00;;;;;;;21.26;42.08;97529.53;8381439;28;20391;-78
2022/09/24 13:28:58;;;;;;;0.00;0.00;;;;;;;21.40;42.40;97530.88;8381058;28;20238;-77
2022/09/24 13:33:06;;;;;;;0.00;0.00;;;;;;;21.10;43.08;97529.34;8380959;28;20463;-77
2022/09/24 13:37:12;;;;;;;0.00;0.00;;;;;;;21.01;43.41;97527.59;8380755;28;20238;-77
2022/09/24 13:41:23;;;;;;;0.00;0.00;;;;;;;20.81;43.19;97522.41;8381005;28;20250;-77
2022/09/24 13:45:26;;;;;;;0.00;0.00;;;;;;;20.56;43.00;97522.97;8380441;28;20224;-77
2022/09/24 13:49:31;;;;;;;0.00;0.00;;;;;;;20.39;43.57;97522.72;8380623;28;20254;-76
2022/09/24 13:53:38;;;;;;;0.00;0.00;;;;;;;20.43;43.96;97520.66;8380519;28;20232;-76
2022/09/24 13:57:44;;;;;;;0.00;0.00;;;;;;;20.41;44.11;97522.56;8379425;28;20239;-76
2022/09/24 14:01:47;;;;;;;0.00;0.00;;;;;;;20.43;43.41;97523.28;8380347;28;20244;-75
2022/09/24 14:05:52;;;;;;;0.00;0.00;;;;;;;20.62;43.28;97525.91;8380550;28;20226;-75
2022/09/24 14:10:02;;;;;;;0.00;0.00;;;;;;;20.57;44.03;97527.28;8380469;28;20232;-76
2022/09/24 14:14:10;;;;;;;0.00;0.00;;;;;;;20.49;43.48;97523.53;8380304;28;20238;-75
2022/09/24 14:18:14;;;;;;;0.00;0.00;;;;;;;20.61;43.63;97521.59;8380087;28;20231;-75
2022/09/24 14:22:21;;;;;;;0.00;0.00;;;;;;;20.75;44.59;97520.31;8380087;28;20232;-76
2022/09/24 14:26:28;;;;;;;0.00;0.00;;;;;;;20.53;44.76;97510.13;8380101;28;20280;-76
2022/09/24 14:30:32;;;;;;;0.00;0.00;;;;;;;20.63;44.45;97510.94;8379448;28;20537;-76
2022/09/24 14:34:36;;;;;;;0.00;0.00;;;;;;;20.34;45.46;97514.44;8379876;28;20238;-75
2022/09/24 14:38:48;;;;;;;0.00;0.00;;;;;;;20.32;45.27;97508.47;8379828;28;20231;-76
2022/09/24 14:42:57;;;;;;;0.00;0.00;;;;;;;20.16;44.90;97511.66;8380095;28;20223;-76
2022/09/24 14:46:59;;;;;;;0.00;0.00;;;;;;;20.18;45.89;97504.50;8379705;28;20531;-75
2022/09/24 14:51:02;;;;;;;0.00;0.00;;;;;;;20.05;45.49;97499.50;8379686;28;20229;-76
2022/09/24 14:55:16;;;;;;;0.00;0.00;;;;;;;20.14;44.72;97507.53;8379607;28;20227;-76
2022/09/24 14:59:28;;;;;;;0.00;0.00;;;;;;;20.28;44.56;97494.78;8379490;28;20242;-75
2022/09/24 15:03:37;;;;;;;0.00;0.00;;;;;;;20.30;44.99;97508.63;8378669;28;20436;-75
2022/09/24 15:07:40;;;;;;;0.00;0.00;;;;;;;20.31;44.72;97499.78;8379257;28;20240;-76
2022/09/24 15:11:45;;;;;;;0.00;0.00;;;;;;;20.26;44.69;97501.16;8384960;28;20230;-75
2022/09/24 15:15:48;;;;;;;0.00;0.00;;;;;;;20.21;44.76;97508.63;8385560;28;20222;-76
2022/09/24 15:19:54;;;;;;;0.00;0.00;;;;;;;20.07;44.27;97502.81;8385465;28;20235;-76
2022/09/24 15:23:57;;;;;;;0.00;0.00;;;;;;;19.81;45.87;97493.84;8385356;28;20247;-76
2022/09/24 15:28:02;;;;;;;0.00;0.00;;;;;;;19.92;46.02;97498.97;8385135;28;20531;-76
2022/09/24 15:32:12;;;;;;;0.00;0.00;;;;;;;19.85;46.36;97493.41;8384754;28;20253;-76
2022/09/24 15:36:19;;;;;;;0.00;0.00;;;;;;;19.75;46.44;97497.03;8385157;28;20540;-76
2022/09/24 15:40:24;;;;;;;0.00;0.00;;;;;;;19.73;46.34;97497.16;8384695;28;20237;-76
2022/09/24 15:44:28;;;;;;;0.00;0.00;;;;;;;19.76;46.65;97496.03;8383976;28;20251;-75
2022/09/24 15:48:36;;;;;;;0.00;0.00;;;;;;;19.70;47.14;97492.97;8384395;28;20423;-75
2022/09/24 15:52:44;;;;;;;0.00;0.00;;;;;;;19.70;46.87;97497.38;8384559;28;20232;-75
2022/09/24 15:56:51;;;;;;;0.00;0.00;;;;;;;19.65;47.31;97492.56;8384316;28;20229;-75
2022/09/24 16:00:55;;;;;;;0.00;0.00;;;;;;;19.61;47.87;97498.19;8384156;28;20227;-76
2022/09/24 16:04:58;;;;;;;0.00;0.00;;;;;;;19.57;48.04;97494.19;8384092;28;20231;-75
2022/09/24 16:09:06;;;;;;;0.00;0.00;;;;;;;19.48;47.96;97491.41;8383974;28;20232;-75
2022/09/24 16:13:09;;;;;;;0.00;0.00;;;;;;;19.38;48.66;97500.22;8383771;28;20229;-76
2022/09/24 16:17:13;;;;;;;0.00;0.00;;;;;;;19.33;49.00;97501.47;8383640;28;20231;-76
2022/09/24 16:21:16;;;;;;;0.00;0.00;;;;;;;19.21;49.33;97497.31;8382831;28;20232;-76
2022/09/24 16:25:18;;;;;;;0.00;0.00;;;;;;;19.01;48.03;97498.19;8383142;28;20445;-75
2022/09/24 16:29:21;;;;;;;0.00;0.00;;;;;;;19.08;48.93;97501.97;8383179;28;20285;-77
2022/09/24 16:33:25;;;;;;;0.00;0.00;;;;;;;19.06;49.72;97501.25;8382827;28;20291;-76
2022/09/24 16:37:28;;;;;;;0.00;0.00;;;;;;;19.08;50.11;97501.97;8382381;28;20231;-75
2022/09/24 16:41:33;;;;;;;0.00;0.00;;;;;;;19.01;49.62;97501.63;8382834;28;20232;-75
2022/09/24 16:45:36;;;;;;;0.00;0.00;;;;;;;18.95;50.00;97503.00;8382982;28;20375;-75
2022/09/24 16:49:39;;;;;;;0.00;0.00;;;;;;;18.91;50.32;97508.66;8382528;28;20519;-76
2022/09/24 16:53:42;;;;;;;0.00;0.00;;;;;;;18.89;50.12;97505.34;8382105;28;20235;-76
2022/09/24 16:57:51;;;;;;;0.00;0.00;;;;;;;18.89;51.06;97500.09;8382290;28;20236;-76
2022/09/24 17:01:53;;;;;;;0.00;0.00;;;;;;;18.86;50.83;97505.59;8381914;28;20240;-75
2022/09/24 17:05:57;;;;;;;0.00;0.00;;;;;;;18.86;52.58;97501.16;8381982;28;20527;-76
2022/09/24 17:10:16;;;;;;;0.00;0.00;;;;;;;18.82;53.92;97512.06;8381974;28;20238;-76
2022/09/24 17:14:19;;;;;;;0.00;0.00;;;;;;;18.76;53.54;97510.75;8382068;28;20231;-75
2022/09/24 17:18:24;;;;;;;0.00;0.00;;;;;;;18.76;54.28;97505.50;8381606;28;20287;-76
2022/09/24 17:22:29;;;;;;;0.00;0.00;;;;;;;18.70;54.53;97509.47;8381090;28;20230;-75
2022/09/24 17:26:32;;;;;;;0.00;0.00;;;;;;;18.73;54.65;97522.34;8381561;28;20229;-75
2022/09/24 17:30:34;;;;;;;0.00;0.00;;;;;;;18.70;55.80;97512.09;8380892;28;20243;-76
2022/09/24 17:34:37;;;;;;;0.00;0.00;;;;;;;18.55;56.58;97522.09;8381298;28;20232;-76
2022/09/24 17:38:49;;;;;;;0.00;0.00;;;;;;;18.58;56.16;97534.09;8381334;28;20326;-74
2022/09/24 17:42:52;;;;;;;0.00;0.00;;;;;;;18.51;56.26;97527.72;8381426;28;20236;-75
2022/09/24 17:46:55;;;;;;;0.00;0.00;;;;;;;18.46;56.29;97529.91;8381074;28;20247;-77
2022/09/24 17:51:00;;;;;;;0.00;0.00;;;;;;;18.45;56.81;97534.31;8381920;28;20433;-78
2022/09/24 17:55:07;;;;;;;0.00;0.00;;;;;;;18.39;56.71;97533.97;8381698;28;20227;-78
2022/09/24 17:59:12;;;;;;;0.00;0.00;;;;;;;18.32;57.66;97536.28;8380771;28;20231;-77
2022/09/24 18:03:15;;;;;;;0.00;0.00;;;;;;;18.31;57.40;97543.31;8380595;28;20238;-77
2022/09/24 18:07:18;;;;;;;0.00;0.00;;;;;;;18.23;57.91;97540.50;8380605;28;20253;-75
2022/09/24 18:11:24;;;;;;;0.00;0.00;;;;;;;18.10;58.20;97545.91;8380433;28;20526;-75
2022/09/24 18:15:27;;;;;;;0.00;0.00;;;;;;;18.19;58.40;97546.94;8379937;28;20238;-74
2022/09/24 18:19:30;;;;;;;0.00;0.00;;;;;;;18.17;58.37;97551.50;8380309;28;20235;-75
2022/09/24 18:23:33;;;;;;;0.00;0.00;;;;;;;18.04;60.02;97546.41;8380022;28;20236;-73
2022/09/24 18:27:38;;;;;;;0.00;0.00;;;;;;;18.35;61.02;97544.75;8380275;28;20242;-78
2022/09/24 18:31:41;;;;;;;0.00;0.00;;;;;;;18.63;60.32;97545.03;8379991;28;20244;-76
2022/09/24 18:35:44;;;;;;;0.00;0.00;;;;;;;18.26;60.81;97545.50;8380123;28;20350;-75
2022/09/24 18:39:47;;;;;;;0.00;0.00;;;;;;;18.11;61.62;97550.19;8379866;28;20541;-75
2022/09/24 18:43:52;;;;;;;0.00;0.00;;;;;;;18.06;61.81;97552.34;8381093;28;20223;-75
2022/09/24 18:47:54;;;;;;;0.00;0.00;;;;;;;18.01;62.30;97558.94;8386620;28;20231;-75
2022/09/24 18:51:57;;;;;;;0.00;0.00;;;;;;;18.06;61.94;97570.69;8386418;28;20223;-75
2022/09/24 18:56:04;;;;;;;0.00;0.00;;;;;;;17.97;62.90;97559.19;8386328;28;20242;-74
2022/09/24 19:00:48;;;;;;;0.00;0.00;;;;;;;17.96;62.42;97554.06;8385688;28;20235;-75
2022/09/24 19:04:33;;;;;;;0.00;0.00;;;;;;;17.91;62.39;97550.97;8385098;28;20243;-75
2022/09/24 19:08:35;;;;;;;0.00;0.00;;;;;;;17.79;62.71;97553.59;8386006;28;20235;-74
2022/09/24 19:12:42;;;;;;;0.00;0.00;;;;;;;17.84;62.82;97550.66;8385672;28;20239;-74
2022/09/24 19:16:46;;;;;;;0.00;0.00;;;;;;;17.83;62.61;97556.81;8385664;28;20231;-74
2022/09/24 19:20:49;;;;;;;0.00;0.00;;;;;;;17.73;63.08;97553.28;8385581;28;20228;-74
2022/09/24 19:24:52;;;;;;;0.00;0.00;;;;;;;17.81;62.42;97560.53;8385299;28;20251;-74
2022/09/24 19:28:55;;;;;;;0.00;0.00;;;;;;;17.76;62.20;97553.88;8385130;28;20239;-75
2022/09/24 19:33:00;;;;;;;0.00;0.00;;;;;;;17.75;62.71;97551.38;8384959;28;20243;-74
2022/09/24 19:37:03;;;;;;;0.00;0.00;;;;;;;17.73;62.69;97546.25;8385071;28;20545;-75